Time;durP1;ratioP1;P1;durP2;ratioP2;P2;SDS_P1;SDS_P2;PMS_P1;PMS_P2;Temp;Humidity;BMP_temperature;BMP_pressure;BME280_temperature;BME280_humidity;BME280_pressure;Samples;Min_cycle;Max_cycle;Signal;HPM_P1;HPM_P2
2022/01/27 00:00:43;;;;;;;65.10;26.73;;;;;;;2.61;84.76;101585.34;5030733;28;20032;-72
2022/01/27 00:05:57;;;;;;;61.13;25.92;;;;;;;2.61;85.05;101574.94;5028092;28;20048;-72
2022/01/27 00:08:42;;;;;;;62.95;26.15;;;;;;;2.78;84.77;101580.00;5031431;28;20427;-72
2022/01/27 00:11:11;;;;;;;64.43;26.23;;;;;;;2.64;84.72;101577.66;5031506;28;20034;-72
2022/01/27 00:13:44;;;;;;;59.50;24.83;;;;;;;2.70;84.49;101586.56;5027440;28;20029;-72
2022/01/27 00:18:37;;;;;;;61.58;27.08;;;;;;;2.66;84.73;101564.72;5031290;28;20038;-72
2022/01/27 00:21:03;;;;;;;63.83;26.40;;;;;;;2.63;84.97;101573.28;5031332;28;20041;-72
2022/01/27 00:23:28;;;;;;;60.70;26.08;;;;;;;2.72;84.61;101571.88;5029557;28;20037;-72
2022/01/27 00:25:53;;;;;;;66.25;27.23;;;;;;;2.71;84.69;101560.59;5031027;28;20072;-72
2022/01/27 00:28:19;;;;;;;61.22;25.90;;;;;;;2.64;84.66;101567.22;5031301;28;20037;-72
2022/01/27 00:30:44;;;;;;;61.25;26.52;;;;;;;2.60;85.19;101549.72;5031151;28;20056;-72
2022/01/27 00:33:09;;;;;;;65.72;27.60;;;;;;;2.67;84.64;101543.03;5031108;28;20030;-73
2022/01/27 00:35:35;;;;;;;55.58;24.67;;;;;;;2.67;84.55;101544.75;5030775;28;20068;-72
2022/01/27 00:38:01;;;;;;;57.90;25.50;;;;;;;2.74;84.55;101554.59;5031112;28;20083;-72
2022/01/27 00:40:26;;;;;;;57.58;25.27;;;;;;;2.74;84.38;101538.97;5031027;28;20029;-72
2022/01/27 00:42:52;;;;;;;57.75;24.00;;;;;;;2.71;84.46;101531.03;5026371;28;20559;-72
2022/01/27 00:45:18;;;;;;;60.17;25.08;;;;;;;2.74;84.12;101524.22;5030582;28;20043;-72
2022/01/27 00:47:44;;;;;;;58.33;24.75;;;;;;;2.74;84.01;101529.44;5029776;28;20041;-73
2022/01/27 00:50:09;;;;;;;52.97;22.55;;;;;;;2.77;83.68;101531.28;5031007;28;20065;-73
2022/01/27 00:52:42;;;;;;;52.67;22.27;;;;;;;2.70;84.81;101517.09;5029692;28;20113;-73
2022/01/27 00:55:09;;;;;;;63.38;25.50;;;;;;;2.66;84.82;101512.59;5028485;28;20099;-73
2022/01/27 01:00:26;;;;;;;55.08;22.67;;;;;;;2.70;84.67;101516.19;5043109;28;20457;-72
2022/01/27 01:03:01;;;;;;;59.67;23.98;;;;;;;2.72;84.52;101514.53;5030992;28;20157;-73
2022/01/27 01:07:56;;;;;;;58.42;26.70;;;;;;;2.76;84.30;101512.13;5034676;28;20408;-73
2022/01/27 01:15:50;;;;;;;53.92;22.58;;;;;;;2.77;83.76;101515.63;5034470;28;20034;-73
2022/01/27 01:34:20;;;;;;;54.65;24.00;;;;;;;2.71;85.10;101494.53;5028380;28;20514;-73
2022/01/27 01:36:55;;;;;;;49.35;21.92;;;;;;;2.70;85.55;101490.13;5031334;28;20402;-72
2022/01/27 01:39:25;;;;;;;52.58;21.48;;;;;;;2.70;85.67;101475.41;5034264;28;20030;-72
2022/01/27 01:41:51;;;;;;;49.75;20.20;;;;;;;2.70;85.62;101469.28;5034587;28;20107;-73
2022/01/27 01:44:17;;;;;;;44.42;19.42;;;;;;;2.71;85.59;101465.84;5034070;28;20509;-73
2022/01/27 01:46:42;;;;;;;43.22;18.52;;;;;;;2.59;86.47;101456.72;5033855;28;20038;-73
2022/01/27 01:49:08;;;;;;;49.60;19.15;;;;;;;2.61;86.60;101456.75;5032714;28;20043;-73
2022/01/27 01:51:35;;;;;;;51.55;19.77;;;;;;;2.60;87.18;101455.00;5032696;28;20049;-73
2022/01/27 01:54:01;;;;;;;44.42;19.90;;;;;;;2.55;87.65;101438.28;5033962;28;20041;-73
2022/01/27 01:56:26;;;;;;;48.70;19.95;;;;;;;2.52;87.41;101444.25;5033795;28;20408;-72
2022/01/27 01:58:52;;;;;;;43.72;18.92;;;;;;;2.49;87.72;101436.31;5032621;28;20029;-73
2022/01/27 02:01:18;;;;;;;56.38;21.83;;;;;;;2.51;87.41;101433.75;5033795;28;20124;-73
2022/01/27 02:03:45;;;;;;;55.55;20.23;;;;;;;2.46;88.07;101424.88;5030177;28;20559;-73
2022/01/27 02:06:18;;;;;;;52.83;20.77;;;;;;;2.42;88.24;101426.47;5033553;28;20720;-73
2022/01/27 02:09:06;;;;;;;52.40;20.30;;;;;;;2.39;88.76;101434.16;5025368;28;20120;-73
2022/01/27 02:19:50;;;;;;;44.28;17.70;;;;;;;2.39;88.83;101426.34;5031011;28;20037;-73
2022/01/27 02:22:18;;;;;;;43.75;18.55;;;;;;;2.41;88.30;101437.69;5032201;28;20412;-72
2022/01/27 02:24:43;;;;;;;46.58;18.70;;;;;;;2.34;89.48;101430.47;5032387;28;20108;-73
2022/01/27 02:27:09;;;;;;;48.60;19.75;;;;;;;2.33;89.30;101426.97;5033375;28;20444;-72
2022/01/27 02:29:34;;;;;;;43.22;19.83;;;;;;;2.29;89.64;101421.56;5033226;28;20068;-73
2022/01/27 02:32:00;;;;;;;45.55;17.38;;;;;;;2.30;89.95;101410.31;5032734;28;20033;-72
2022/01/27 02:34:27;;;;;;;41.85;18.17;;;;;;;2.34;90.03;101402.69;5032708;28;20037;-72
2022/01/27 02:36:52;;;;;;;41.33;17.88;;;;;;;2.34;90.07;101407.03;5033043;28;20045;-73
2022/01/27 02:39:18;;;;;;;44.25;19.13;;;;;;;2.33;90.57;101402.63;5031692;28;20068;-72
2022/01/27 02:41:49;;;;;;;40.08;17.10;;;;;;;2.30;90.42;101399.91;5033079;28;20103;-72
2022/01/27 02:44:53;;;;;;;40.03;18.50;;;;;;;2.33;90.38;101392.19;5033107;28;20099;-72
2022/01/27 02:47:19;;;;;;;46.50;18.00;;;;;;;2.37;90.67;101400.22;5027963;28;20164;-72
2022/01/27 02:49:44;;;;;;;42.95;18.25;;;;;;;2.37;90.20;101381.09;5032744;28;20658;-72
2022/01/27 02:52:10;;;;;;;44.20;18.85;;;;;;;2.40;90.44;101381.22;5031700;28;20160;-72
2022/01/27 02:54:36;;;;;;;42.15;18.92;;;;;;;2.41;90.08;101370.88;5029385;28;20044;-72
2022/01/27 02:57:03;;;;;;;44.75;18.23;;;;;;;2.47;90.41;101377.16;5032718;28;20048;-72
2022/01/27 02:59:28;;;;;;;38.55;18.17;;;;;;;2.43;90.48;101376.13;5032761;28;20450;-72
2022/01/27 03:01:54;;;;;;;39.05;17.73;;;;;;;2.39;90.22;101382.94;5032718;28;20044;-72
2022/01/27 03:04:20;;;;;;;39.65;16.17;;;;;;;2.38;90.70;101368.16;5032461;28;20045;-72
2022/01/27 03:06:47;;;;;;;38.53;17.20;;;;;;;2.42;90.37;101374.34;5032454;28;20025;-72
2022/01/27 03:09:13;;;;;;;43.33;18.38;;;;;;;2.39;90.64;101358.59;5032351;28;20124;-72
2022/01/27 03:11:52;;;;;;;37.50;18.48;;;;;;;2.41;90.81;101362.13;5031607;28;20120;-72
2022/01/27 03:14:22;;;;;;;33.80;16.52;;;;;;;2.42;91.01;101364.81;5032379;28;20045;-72
2022/01/27 03:16:48;;;;;;;43.10;17.38;;;;;;;2.40;90.98;101370.78;5031097;28;20482;-73
2022/01/27 03:19:13;;;;;;;39.85;17.02;;;;;;;2.49;90.47;101358.16;5031276;28;20120;-73
2022/01/27 03:21:40;;;;;;;37.40;16.35;;;;;;;2.38;91.20;101356.81;5030320;28;20209;-73
2022/01/27 03:24:06;;;;;;;36.83;17.30;;;;;;;2.40;91.14;101350.84;5032360;28;20037;-72
2022/01/27 03:26:32;;;;;;;35.45;16.08;;;;;;;2.44;91.41;101345.75;5031997;28;20037;-73
2022/01/27 03:29:00;;;;;;;34.55;15.00;;;;;;;2.49;91.29;101346.81;5031560;28;20048;-72
2022/01/27 03:31:26;;;;;;;36.55;16.73;;;;;;;2.55;90.83;101339.25;5032036;28;20029;-73
2022/01/27 03:33:52;;;;;;;41.10;16.52;;;;;;;2.52;90.67;101329.59;5032189;28;20630;-73
2022/01/27 03:36:18;;;;;;;40.72;17.35;;;;;;;2.49;90.39;101310.34;5031823;28;20029;-73
2022/01/27 03:38:44;;;;;;;39.03;17.38;;;;;;;2.46;90.50;101310.22;5030091;28;20043;-73
2022/01/27 03:41:11;;;;;;;34.88;16.75;;;;;;;2.39;90.65;101301.28;5031954;28;20029;-72
2022/01/27 03:43:38;;;;;;;40.50;18.48;;;;;;;2.48;90.47;101308.56;5030743;28;20049;-72
2022/01/27 03:46:04;;;;;;;35.58;17.73;;;;;;;2.52;89.81;101298.34;5027507;28;20399;-73
2022/01/27 03:48:29;;;;;;;37.80;18.15;;;;;;;2.42;90.16;101290.97;5031799;28;20484;-72
2022/01/27 03:50:55;;;;;;;36.67;17.05;;;;;;;2.45;90.71;101291.09;5031684;28;20041;-73
2022/01/27 03:53:21;;;;;;;37.72;17.10;;;;;;;2.45;89.92;101282.41;5031758;28;20061;-72
2022/01/27 03:55:46;;;;;;;35.67;16.17;;;;;;;2.42;89.93;101283.16;5031525;28;20618;-73
2022/01/27 03:58:12;;;;;;;40.25;18.08;;;;;;;2.45;89.36;101272.84;5031728;28;20041;-73
2022/01/27 04:00:37;;;;;;;36.17;16.17;;;;;;;2.42;88.61;101255.41;5031425;28;20033;-73
2022/01/27 04:03:07;;;;;;;32.40;16.30;;;;;;;2.38;88.49;101257.81;5030781;28;20483;-73
2022/01/27 04:05:38;;;;;;;31.08;14.80;;;;;;;2.43;88.24;101232.81;5028230;28;20033;-73
2022/01/27 04:08:05;;;;;;;33.30;15.52;;;;;;;2.52;88.36;101225.38;5031496;28;20380;-72
2022/01/27 04:10:30;;;;;;;29.98;15.18;;;;;;;2.50;87.72;101227.03;5030515;28;20428;-73
2022/01/27 04:12:56;;;;;;;29.23;14.75;;;;;;;2.47;86.85;101231.25;5031189;28;20034;-73
2022/01/27 04:15:21;;;;;;;27.88;13.90;;;;;;;2.50;86.58;101236.56;5031183;28;20065;-73
2022/01/27 04:17:47;;;;;;;29.55;14.23;;;;;;;2.44;87.00;101233.72;5025479;28;20064;-72
2022/01/27 04:20:13;;;;;;;29.45;14.38;;;;;;;2.47;86.61;101234.72;5026039;28;20087;-73
2022/01/27 04:22:38;;;;;;;31.50;15.10;;;;;;;2.50;85.87;101224.41;5031175;28;20069;-73
2022/01/27 04:25:04;;;;;;;28.98;14.52;;;;;;;2.45;86.30;101223.34;5031143;28;20048;-73
2022/01/27 04:27:33;;;;;;;32.63;14.90;;;;;;;2.50;86.21;101218.31;5031052;28;20033;-73
2022/01/27 04:29:59;;;;;;;29.13;14.20;;;;;;;2.53;85.64;101227.13;5029628;28;20104;-72
2022/01/27 04:32:31;;;;;;;32.95;15.82;;;;;;;2.50;85.52;101216.59;5030739;28;20564;-72
2022/01/27 04:35:02;;;;;;;30.08;14.30;;;;;;;2.50;84.87;101214.00;5031025;28;20030;-72
2022/01/27 04:37:29;;;;;;;29.00;14.10;;;;;;;2.43;84.99;101211.97;5027512;28;20091;-72
2022/01/27 04:40:08;;;;;;;28.40;13.63;;;;;;;2.51;84.42;101202.72;5027180;28;20357;-72
2022/01/27 04:42:50;;;;;;;30.20;13.43;;;;;;;2.54;83.87;101202.88;5032853;28;20037;-72
2022/01/27 04:45:17;;;;;;;26.05;14.07;;;;;;;2.44;83.94;101199.84;5034818;28;20034;-73
2022/01/27 04:47:47;;;;;;;22.67;10.90;;;;;;;2.58;83.62;101196.94;5034996;28;20504;-72
2022/01/27 04:50:12;;;;;;;26.42;13.93;;;;;;;2.66;83.73;101197.22;5032739;28;20034;-73
2022/01/27 04:52:43;;;;;;;24.27;12.02;;;;;;;2.71;83.79;101198.25;5033868;28;20037;-73
2022/01/27 04:55:11;;;;;;;25.95;13.23;;;;;;;2.73;83.79;101193.13;5032488;28;20103;-73
2022/01/27 04:57:39;;;;;;;32.75;16.50;;;;;;;2.79;83.35;101195.94;5033569;28;20095;-73
2022/01/27 05:00:07;;;;;;;39.58;18.25;;;;;;;2.71;83.08;101194.78;5029409;28;20484;-73
2022/01/27 05:02:47;;;;;;;45.17;20.52;;;;;;;2.67;83.58;101212.00;5034814;28;20033;-73
2022/01/27 05:05:12;;;;;;;49.17;21.33;;;;;;;2.74;83.03;101215.75;5030356;28;20510;-74
2022/01/27 05:07:39;;;;;;;42.22;19.80;;;;;;;2.65;82.93;101213.69;5034618;28;20037;-74
2022/01/27 05:10:11;;;;;;;49.00;20.17;;;;;;;2.70;83.16;101213.84;5031821;28;20045;-73
2022/01/27 05:12:47;;;;;;;50.85;22.02;;;;;;;2.66;82.94;101214.56;5029713;28;20061;-73
2022/01/27 05:15:13;;;;;;;48.47;21.05;;;;;;;2.64;83.26;101210.16;5033254;28;20029;-73
2022/01/27 05:17:39;;;;;;;51.10;22.45;;;;;;;2.68;83.79;101205.97;5034440;28;20511;-74
2022/01/27 05:20:05;;;;;;;48.80;21.98;;;;;;;2.65;83.07;101190.22;5030238;28;20026;-72
2022/01/27 05:22:31;;;;;;;52.63;21.17;;;;;;;2.73;83.13;101187.91;5034490;28;20048;-74
2022/01/27 05:24:57;;;;;;;52.90;24.45;;;;;;;2.77;83.32;101181.94;5033760;28;20435;-74
2022/01/27 05:27:23;;;;;;;52.75;21.92;;;;;;;2.75;83.13;101171.50;5029286;28;20365;-73
2022/01/27 05:29:49;;;;;;;46.53;20.80;;;;;;;2.74;83.08;101166.22;5032918;28;20040;-73
2022/01/27 05:32:14;;;;;;;48.28;21.42;;;;;;;2.77;82.84;101156.78;5034330;28;20047;-74
2022/01/27 05:34:40;;;;;;;49.92;21.25;;;;;;;2.81;82.30;101158.66;5033680;28;20049;-73
2022/01/27 05:37:05;;;;;;;46.40;20.35;;;;;;;2.76;82.56;101159.34;5031183;28;20065;-73
2022/01/27 05:39:30;;;;;;;42.38;20.38;;;;;;;2.79;82.07;101175.09;5029838;28;20116;-73
2022/01/27 05:41:56;;;;;;;47.95;22.05;;;;;;;2.77;81.82;101167.19;5031134;28;20026;-73
2022/01/27 05:44:21;;;;;;;46.88;20.70;;;;;;;2.81;81.95;101176.91;5033667;28;20029;-73
2022/01/27 05:46:46;;;;;;;45.65;20.98;;;;;;;2.80;82.06;101166.41;5029179;28;20037;-73
2022/01/27 05:49:12;;;;;;;49.67;21.95;;;;;;;2.81;81.79;101161.28;5027724;28;20046;-74
2022/01/27 05:51:37;;;;;;;45.80;20.70;;;;;;;2.84;81.83;101157.88;5033430;28;20025;-74
2022/01/27 05:54:03;;;;;;;44.45;20.85;;;;;;;2.82;81.93;101142.19;5034000;28;20037;-73
2022/01/27 05:56:28;;;;;;;48.88;22.30;;;;;;;2.78;81.63;101142.03;5032755;28;20052;-74
2022/01/27 05:58:53;;;;;;;46.08;21.35;;;;;;;2.79;81.36;101141.19;5030673;28;20064;-74
2022/01/27 06:01:19;;;;;;;44.50;20.55;;;;;;;2.80;81.40;101162.13;5029714;28;20041;-73
2022/01/27 06:03:44;;;;;;;42.00;20.83;;;;;;;2.94;81.42;101172.13;5030143;28;20095;-74
2022/01/27 06:06:09;;;;;;;42.10;20.67;;;;;;;2.83;81.60;101163.94;5031422;28;20120;-73
2022/01/27 06:08:34;;;;;;;44.65;20.42;;;;;;;2.85;81.48;101137.06;5030705;28;20031;-74
2022/01/27 06:11:00;;;;;;;41.88;19.88;;;;;;;2.80;81.26;101142.97;5033167;28;20029;-74
2022/01/27 06:13:26;;;;;;;40.15;19.73;;;;;;;2.83;81.00;101145.69;5029460;28;20558;-74
2022/01/27 06:15:51;;;;;;;37.45;18.67;;;;;;;2.84;80.94;101143.13;5035793;28;20072;-73
2022/01/27 06:18:17;;;;;;;40.08;18.48;;;;;;;2.77;81.02;101142.84;5043434;28;20060;-74
2022/01/27 06:20:44;;;;;;;39.92;18.23;;;;;;;2.87;80.79;101138.84;5041549;28;20032;-74
2022/01/27 06:23:10;;;;;;;40.63;19.10;;;;;;;2.86;80.70;101122.34;5033807;28;20381;-74
2022/01/27 06:25:35;;;;;;;37.63;18.52;;;;;;;2.80;80.92;101125.63;5013466;28;20033;-73
2022/01/27 06:28:01;;;;;;;40.40;18.83;;;;;;;2.79;81.29;101125.56;5032823;28;20033;-74
2022/01/27 06:30:26;;;;;;;39.30;18.52;;;;;;;2.82;80.89;101130.88;5031966;28;20080;-73
2022/01/27 06:32:52;;;;;;;36.20;16.75;;;;;;;2.83;80.80;101117.03;5030999;28;20159;-74
2022/01/27 06:35:17;;;;;;;33.88;18.23;;;;;;;2.79;80.46;101120.34;5031310;28;20048;-73
2022/01/27 06:37:45;;;;;;;31.10;16.52;;;;;;;2.82;80.38;101120.44;5031831;28;20037;-74
2022/01/27 06:40:11;;;;;;;34.88;17.05;;;;;;;2.79;80.22;101105.56;5032698;28;20061;-74
2022/01/27 06:42:37;;;;;;;32.10;17.65;;;;;;;2.71;80.13;101095.72;5031239;28;20392;-73
2022/01/27 06:45:04;;;;;;;34.60;17.52;;;;;;;2.80;80.57;101091.72;5031814;28;20036;-73
2022/01/27 06:47:29;;;;;;;30.48;15.98;;;;;;;2.83;79.59;101098.78;5026947;28;20480;-73
2022/01/27 06:49:55;;;;;;;32.85;15.95;;;;;;;2.79;79.63;101094.28;5032668;28;20030;-73
2022/01/27 06:52:22;;;;;;;29.17;16.83;;;;;;;2.78;79.77;101092.50;5032779;28;20460;-73
2022/01/27 06:54:49;;;;;;;29.25;15.70;;;;;;;2.84;79.65;101088.38;5027407;28;20037;-73
2022/01/27 06:57:15;;;;;;;29.48;15.85;;;;;;;2.88;79.21;101081.53;5028752;28;20115;-73
2022/01/27 06:59:40;;;;;;;30.30;15.65;;;;;;;2.85;78.53;101074.50;5032553;28;20456;-73
2022/01/27 07:02:06;;;;;;;27.35;14.93;;;;;;;2.79;78.48;101071.69;5032700;28;20041;-73
2022/01/27 07:04:31;;;;;;;24.73;14.38;;;;;;;2.78;77.95;101061.22;5031709;28;20099;-73
2022/01/27 07:06:57;;;;;;;25.45;13.65;;;;;;;2.82;78.15;101065.69;5028865;28;20049;-73
2022/01/27 07:09:22;;;;;;;22.13;12.90;;;;;;;2.77;78.35;101054.22;5028725;28;20503;-73
2022/01/27 07:11:47;;;;;;;22.52;13.30;;;;;;;2.83;77.53;101067.50;5032489;28;20033;-73
2022/01/27 07:14:13;;;;;;;24.17;13.48;;;;;;;2.77;77.49;101067.25;5032394;28;20404;-73
2022/01/27 07:16:38;;;;;;;21.90;12.45;;;;;;;2.73;76.84;101050.63;5032189;28;20486;-72
2022/01/27 07:19:04;;;;;;;22.35;13.25;;;;;;;2.70;76.93;101041.81;5032630;28;20033;-73
2022/01/27 07:21:29;;;;;;;24.48;13.90;;;;;;;2.74;77.06;101035.88;5028485;28;20037;-73
2022/01/27 07:23:55;;;;;;;21.65;13.07;;;;;;;2.73;76.51;101044.56;5032211;28;20037;-73
2022/01/27 07:26:25;;;;;;;22.23;13.48;;;;;;;2.55;76.28;101050.91;5032013;28;20037;-73
2022/01/27 07:28:55;;;;;;;29.05;11.90;;;;;;;2.74;76.22;101049.78;5030762;28;20411;-73
2022/01/27 07:31:21;;;;;;;21.65;12.73;;;;;;;2.65;75.81;101059.94;5028162;28;20506;-73
2022/01/27 07:33:48;;;;;;;22.48;11.95;;;;;;;2.69;76.79;101063.50;5032049;28;20037;-72
2022/01/27 07:36:15;;;;;;;22.40;12.60;;;;;;;2.63;76.71;101054.66;5027508;28;20065;-73
2022/01/27 07:38:40;;;;;;;19.58;12.00;;;;;;;2.64;76.32;101071.16;5028961;28;20033;-73
2022/01/27 07:41:06;;;;;;;24.58;13.57;;;;;;;2.64;76.26;101074.66;5014014;28;20138;-73
2022/01/27 07:43:31;;;;;;;21.67;13.30;;;;;;;2.61;76.51;101064.13;5031984;28;20033;-73
2022/01/27 07:45:57;;;;;;;21.95;12.77;;;;;;;2.78;76.01;101082.97;5031492;28;20029;-72
2022/01/27 07:48:22;;;;;;;22.33;13.07;;;;;;;2.75;76.10;101102.81;5031725;28;20072;-74
2022/01/27 07:50:48;;;;;;;22.45;13.65;;;;;;;2.74;76.32;101060.22;5031849;28;20559;-73
2022/01/27 07:53:14;;;;;;;22.40;12.70;;;;;;;2.84;76.17;101066.66;5030705;28;20463;-73
2022/01/27 07:55:39;;;;;;;21.77;13.63;;;;;;;2.76;76.25;101073.31;5030095;28;20029;-73
2022/01/27 07:58:05;;;;;;;23.70;13.30;;;;;;;2.81;76.21;101057.00;5028794;28;20499;-72
2022/01/27 08:00:30;;;;;;;22.17;12.43;;;;;;;2.86;75.85;101059.75;5030421;28;20049;-73
2022/01/27 08:02:55;;;;;;;24.95;13.68;;;;;;;2.92;75.76;101040.81;5031563;28;20087;-73
2022/01/27 08:05:21;;;;;;;22.95;13.90;;;;;;;2.99;76.10;101038.47;5030515;28;20455;-72
2022/01/27 08:07:46;;;;;;;22.98;13.13;;;;;;;3.00;75.59;101042.84;5026875;28;20029;-74
2022/01/27 08:10:12;;;;;;;23.83;14.63;;;;;;;3.00;75.24;101042.84;5029357;28;20091;-73
2022/01/27 08:12:44;;;;;;;27.27;13.40;;;;;;;3.09;74.88;101026.59;5028746;28;20034;-73
2022/01/27 08:15:18;;;;;;;25.77;13.48;;;;;;;3.06;74.60;101023.91;5030766;28;20043;-73
2022/01/27 08:17:43;;;;;;;26.95;13.80;;;;;;;3.11;75.49;101017.09;5031272;28;20045;-72
2022/01/27 08:20:09;;;;;;;27.02;14.90;;;;;;;3.02;75.25;101014.22;5031193;28;20047;-73
2022/01/27 08:22:39;;;;;;;23.92;14.05;;;;;;;3.13;74.19;101023.25;5030058;28;20095;-74
2022/01/27 08:25:04;;;;;;;25.58;14.02;;;;;;;3.01;74.80;101005.50;5031026;28;20041;-74
2022/01/27 08:27:31;;;;;;;24.80;14.10;;;;;;;3.06;74.69;100996.09;5031060;28;20087;-74
2022/01/27 08:30:02;;;;;;;23.88;14.73;;;;;;;3.03;74.96;100966.44;5029252;28;20040;-73
2022/01/27 08:32:44;;;;;;;32.30;17.77;;;;;;;3.14;74.70;101018.94;5029870;28;20033;-73
2022/01/27 08:35:10;;;;;;;23.85;15.25;;;;;;;3.13;74.36;100980.66;5028771;28;20037;-73
2022/01/27 08:37:36;;;;;;;24.15;13.73;;;;;;;3.21;74.04;100985.25;5029133;28;20025;-73
2022/01/27 08:40:02;;;;;;;23.67;14.60;;;;;;;3.18;73.79;100997.34;5030240;28;20036;-74
2022/01/27 08:42:28;;;;;;;23.02;13.48;;;;;;;3.23;73.52;100998.38;5030385;28;20033;-73
2022/01/27 08:44:53;;;;;;;21.90;13.90;;;;;;;3.15;73.50;100995.50;5026524;28;20040;-73
2022/01/27 08:47:18;;;;;;;21.98;13.98;;;;;;;3.12;73.22;100979.78;5019706;28;20036;-73
2022/01/27 08:49:46;;;;;;;19.77;12.93;;;;;;;3.19;73.20;100996.47;5023331;28;20102;-73
2022/01/27 08:52:11;;;;;;;24.10;14.15;;;;;;;3.31;73.56;100969.91;5027759;28;20041;-74
2022/01/27 08:54:37;;;;;;;22.75;13.82;;;;;;;3.42;72.86;100969.38;5030611;28;20036;-74
2022/01/27 08:57:02;;;;;;;23.80;15.00;;;;;;;3.40;73.24;100971.03;5030843;28;20037;-72
2022/01/27 08:59:27;;;;;;;21.42;13.27;;;;;;;3.34;72.12;100972.59;5030693;28;20029;-73
2022/01/27 09:01:53;;;;;;;24.20;13.18;;;;;;;3.40;72.70;100965.81;5029347;28;20491;-75
2022/01/27 09:04:18;;;;;;;20.48;13.07;;;;;;;3.50;72.50;100961.78;5021752;28;20411;-74
2022/01/27 09:06:44;;;;;;;21.85;13.38;;;;;;;3.51;71.70;100972.28;5027326;28;20443;-75
2022/01/27 09:09:09;;;;;;;17.50;11.73;;;;;;;3.42;70.96;100971.97;5028133;28;20029;-75
2022/01/27 09:11:35;;;;;;;21.40;12.10;;;;;;;3.45;70.87;100950.31;5026229;28;20046;-74
2022/01/27 09:14:02;;;;;;;20.27;12.18;;;;;;;3.51;71.63;100943.56;5028319;28;20037;-75
2022/01/27 09:16:29;;;;;;;20.02;12.38;;;;;;;3.42;71.17;100977.19;5028954;28;20134;-75
2022/01/27 09:18:56;;;;;;;19.45;11.93;;;;;;;3.38;71.24;100985.78;5021750;28;20049;-75
2022/01/27 09:21:25;;;;;;;23.00;13.68;;;;;;;3.38;72.36;100971.84;5029527;28;20120;-75
2022/01/27 09:23:51;;;;;;;22.75;14.07;;;;;;;3.37;72.46;100960.53;5027891;28;20091;-75
2022/01/27 09:29:02;;;;;;;25.83;14.68;;;;;;;3.37;72.63;100947.47;5030916;28;20499;-75
2022/01/27 09:31:27;;;;;;;20.90;13.05;;;;;;;3.39;71.87;100951.03;5034364;28;20029;-75
2022/01/27 09:33:52;;;;;;;24.33;14.13;;;;;;;3.47;72.27;100944.28;5034455;28;20495;-74
2022/01/27 09:36:18;;;;;;;27.42;15.27;;;;;;;3.56;72.58;100943.66;5033044;28;20038;-75
2022/01/27 09:38:43;;;;;;;26.60;14.77;;;;;;;3.47;72.19;100935.59;5034285;28;20044;-75
2022/01/27 09:41:11;;;;;;;22.90;13.40;;;;;;;3.43;72.35;100952.00;5034098;28;20542;-75
2022/01/27 09:43:36;;;;;;;23.85;14.68;;;;;;;3.40;72.25;100949.28;5031623;28;20186;-75
2022/01/27 09:46:07;;;;;;;23.33;13.95;;;;;;;3.34;72.30;100941.28;5033483;28;20029;-75
2022/01/27 09:48:39;;;;;;;25.10;14.35;;;;;;;3.40;72.99;100952.78;5033862;28;20026;-75
2022/01/27 09:53:50;;;;;;;20.98;12.65;;;;;;;3.45;73.24;100939.88;5029979;28;19913;-75
2022/01/27 09:56:15;;;;;;;22.27;12.85;;;;;;;3.39;72.48;100935.38;5029374;28;20384;-75
2022/01/27 09:58:41;;;;;;;22.25;12.77;;;;;;;3.32;72.65;100930.81;5032384;28;20096;-76
2022/01/27 10:01:07;;;;;;;22.58;12.10;;;;;;;3.24;72.23;100929.69;5033300;28;20013;-75
2022/01/27 10:03:32;;;;;;;23.38;13.30;;;;;;;3.17;72.88;100926.03;5033268;28;20030;-75
2022/01/27 10:06:13;;;;;;;19.77;11.93;;;;;;;3.16;72.04;100944.22;5032949;28;20105;-75
2022/01/27 10:08:41;;;;;;;19.40;12.23;;;;;;;3.11;72.80;100940.59;5033537;28;20033;-76
2022/01/27 10:11:17;;;;;;;21.70;11.70;;;;;;;3.07;72.88;100929.19;5033418;28;20048;-75
2022/01/27 10:13:45;;;;;;;22.20;13.45;;;;;;;3.16;73.06;100932.06;5028132;28;20037;-75
2022/01/27 10:16:30;;;;;;;21.23;12.73;;;;;;;3.16;72.49;100933.78;5031971;28;20033;-76
2022/01/27 10:19:10;;;;;;;18.33;11.30;;;;;;;3.13;71.99;100933.72;5030255;28;20037;-75
2022/01/27 10:21:37;;;;;;;22.73;13.13;;;;;;;3.09;72.19;100927.50;5033491;28;20033;-75
2022/01/27 10:24:25;;;;;;;19.10;11.55;;;;;;;3.07;72.90;100924.84;5033244;28;20033;-75
2022/01/27 10:27:17;;;;;;;19.65;10.77;;;;;;;3.06;72.62;100928.28;5030248;28;20033;-76
2022/01/27 10:30:04;;;;;;;18.00;11.50;;;;;;;3.15;73.05;100935.53;5028046;28;20140;-76
2022/01/27 10:32:40;;;;;;;19.45;11.98;;;;;;;3.13;73.02;100918.06;5032072;28;20431;-75
2022/01/27 10:35:06;;;;;;;23.35;13.07;;;;;;;3.18;73.08;100921.69;5031103;28;20692;-76
2022/01/27 10:38:05;;;;;;;19.33;12.13;;;;;;;3.22;73.33;100915.72;5029909;28;20061;-75
2022/01/27 10:40:39;;;;;;;20.05;12.13;;;;;;;3.27;73.31;100922.88;5032066;28;20037;-75
2022/01/27 10:43:11;;;;;;;21.38;12.10;;;;;;;3.29;72.66;100909.84;5028698;28;20048;-75
2022/01/27 10:45:56;;;;;;;20.35;12.63;;;;;;;3.29;72.00;100920.28;5031792;28;20555;-75
2022/01/27 10:48:26;;;;;;;18.55;10.65;;;;;;;3.24;71.36;100908.81;5032915;28;20045;-74
2022/01/27 10:51:09;;;;;;;20.63;11.55;;;;;;;3.26;71.50;100899.31;5032402;28;20037;-75
2022/01/27 10:54:15;;;;;;;20.75;10.88;;;;;;;3.28;71.36;100890.69;5032807;28;20037;-75
2022/01/27 10:56:40;;;;;;;21.27;12.13;;;;;;;3.27;70.68;100890.66;5030989;28;20033;-76
2022/01/27 10:59:13;;;;;;;21.17;12.43;;;;;;;3.23;71.49;100891.41;5014945;28;20038;-76
2022/01/27 11:01:44;;;;;;;24.33;13.05;;;;;;;3.31;70.89;100884.69;5034095;28;20033;-76
2022/01/27 11:04:12;;;;;;;22.40;11.80;;;;;;;3.23;71.10;100878.38;5034884;28;20044;-77
2022/01/27 11:06:56;;;;;;;19.67;11.35;;;;;;;3.39;70.40;100880.56;5035728;28;20060;-78
2022/01/27 11:09:23;;;;;;;22.95;13.00;;;;;;;3.36;70.98;100872.66;5024812;28;20526;-77
2022/01/27 11:11:50;;;;;;;19.73;10.68;;;;;;;3.53;70.22;100856.59;5034999;28;20096;-77
2022/01/27 11:14:15;;;;;;;19.38;11.32;;;;;;;3.58;69.88;100865.44;5031079;28;20041;-76
2022/01/27 11:16:43;;;;;;;18.23;10.13;;;;;;;3.60;69.69;100864.63;5033410;28;20041;-76
2022/01/27 11:19:18;;;;;;;18.52;11.45;;;;;;;3.61;69.45;100855.06;5028799;28;20400;-76
2022/01/27 11:21:54;;;;;;;18.98;11.70;;;;;;;3.60;69.25;100858.53;5033114;28;20033;-77
2022/01/27 11:24:29;;;;;;;20.63;11.60;;;;;;;3.69;69.49;100843.09;5030636;28;20052;-76
2022/01/27 11:26:59;;;;;;;20.95;11.65;;;;;;;3.84;69.65;100833.06;5032155;28;20033;-78
2022/01/27 11:29:26;;;;;;;19.17;11.68;;;;;;;3.84;69.40;100843.50;5033421;28;20124;-77
2022/01/27 11:32:09;;;;;;;17.95;11.30;;;;;;;3.79;68.27;100821.63;5034001;28;20087;-77
2022/01/27 11:34:50;;;;;;;17.33;10.30;;;;;;;3.84;68.40;100835.69;5033137;28;20033;-78
2022/01/27 11:37:18;;;;;;;22.83;12.65;;;;;;;3.91;68.70;100844.56;5036074;28;20492;-78
2022/01/27 11:39:54;;;;;;;18.17;11.25;;;;;;;3.87;68.60;100830.53;5035471;28;20034;-78
2022/01/27 11:42:35;;;;;;;19.67;11.23;;;;;;;3.90;69.50;100828.03;5029509;28;20037;-78
2022/01/27 11:45:22;;;;;;;20.90;11.20;;;;;;;3.85;68.94;100823.50;5033445;28;20030;-78
2022/01/27 11:47:49;;;;;;;21.52;12.27;;;;;;;3.93;69.65;100829.84;5031995;28;20029;-77
2022/01/27 11:50:31;;;;;;;26.48;13.90;;;;;;;3.96;69.32;100822.06;5032062;28;20044;-79
2022/01/27 11:52:57;;;;;;;19.05;11.48;;;;;;;4.03;69.57;100823.09;5028152;28;20076;-77
2022/01/27 11:55:40;;;;;;;17.75;11.23;;;;;;;4.04;69.69;100814.44;5033156;28;20041;-78
2022/01/27 11:58:23;;;;;;;19.77;11.45;;;;;;;4.00;69.51;100828.25;5033199;28;20025;-78
2022/01/27 12:01:13;;;;;;;19.50;10.90;;;;;;;3.97;70.15;100817.72;5030978;28;20018;-78
2022/01/27 12:03:39;;;;;;;23.83;12.20;;;;;;;3.94;70.26;100813.31;5031653;28;20045;-78
2022/01/27 12:06:16;;;;;;;20.58;12.00;;;;;;;3.91;70.48;100811.50;5034899;28;20040;-79
2022/01/27 12:08:41;;;;;;;19.90;11.32;;;;;;;3.95;70.88;100804.63;5033516;28;20041;-79